sensor_id;sensor_type;location;lat;lon;timestamp;temperature;humidity
18777;DHT22;9517;51.174;4.160;2023-07-13T00:01:52;16.80;99.90
18777;DHT22;9517;51.174;4.160;2023-07-13T00:04:20;16.80;99.90
18777;DHT22;9517;51.174;4.160;2023-07-13T00:06:48;16.80;99.90
18777;DHT22;9517;51.174;4.160;2023-07-13T00:09:17;16.70;99.90
18777;DHT22;9517;51.174;4.160;2023-07-13T00:11:49;16.70;99.90
18777;DHT22;9517;51.174;4.160;2023-07-13T00:14:17;16.70;99.90
18777;DHT22;9517;51.174;4.160;2023-07-13T00:16:44;16.80;99.90
18777;DHT22;9517;51.174;4.160;2023-07-13T00:19:13;16.70;99.90
18777;DHT22;9517;51.174;4.160;2023-07-13T00:21:43;16.60;99.90
18777;DHT22;9517;51.174;4.160;2023-07-13T00:24:12;16.50;99.90
18777;DHT22;9517;51.174;4.160;2023-07-13T00:26:39;16.40;99.90
18777;DHT22;9517;51.174;4.160;2023-07-13T00:29:12;16.50;99.90
18777;DHT22;9517;51.174;4.160;2023-07-13T00:31:40;16.50;99.90
18777;DHT22;9517;51.174;4.160;2023-07-13T00:34:07;16.40;99.90
18777;DHT22;9517;51.174;4.160;2023-07-13T00:36:34;16.40;99.90
18777;DHT22;9517;51.174;4.160;2023-07-13T00:39:02;16.40;99.90
18777;DHT22;9517;51.174;4.160;2023-07-13T00:41:30;16.50;99.90
18777;DHT22;9517;51.174;4.160;2023-07-13T00:43:58;16.40;99.90
18777;DHT22;9517;51.174;4.160;2023-07-13T00:46:28;16.40;99.90
18777;DHT22;9517;51.174;4.160;2023-07-13T00:48:59;16.50;99.90
18777;DHT22;9517;51.174;4.160;2023-07-13T00:51:31;16.40;99.90
18777;DHT22;9517;51.174;4.160;2023-07-13T00:54:05;16.40;99.90
18777;DHT22;9517;51.174;4.160;2023-07-13T00:56:33;16.50;99.90
18777;DHT22;9517;51.174;4.160;2023-07-13T00:59:02;16.40;99.90
18777;DHT22;9517;51.174;4.160;2023-07-13T01:01:31;16.50;99.90
18777;DHT22;9517;51.174;4.160;2023-07-13T01:03:58;16.50;99.90
18777;DHT22;9517;51.174;4.160;2023-07-13T01:06:25;16.50;99.90
18777;DHT22;9517;51.174;4.160;2023-07-13T01:08:52;16.50;99.90
18777;DHT22;9517;51.174;4.160;2023-07-13T01:11:21;16.40;99.90
18777;DHT22;9517;51.174;4.160;2023-07-13T01:13:49;16.20;99.90
18777;DHT22;9517;51.174;4.160;2023-07-13T01:16:22;16.30;99.90
18777;DHT22;9517;51.174;4.160;2023-07-13T01:18:52;16.30;99.90
18777;DHT22;9517;51.174;4.160;2023-07-13T01:21:21;16.20;99.90
18777;DHT22;9517;51.174;4.160;2023-07-13T01:23:48;16.20;99.90
18777;DHT22;9517;51.174;4.160;2023-07-13T01:26:15;16.10;99.90
18777;DHT22;9517;51.174;4.160;2023-07-13T01:28:42;16.10;99.90
18777;DHT22;9517;51.174;4.160;2023-07-13T01:31:11;16.20;99.90
18777;DHT22;9517;51.174;4.160;2023-07-13T01:33:39;16.10;99.90
18777;DHT22;9517;51.174;4.160;2023-07-13T01:36:06;16.10;99.90
18777;DHT22;9517;51.174;4.160;2023-07-13T01:38:36;16.00;99.90
18777;DHT22;9517;51.174;4.160;2023-07-13T01:41:03;16.10;99.90
18777;DHT22;9517;51.174;4.160;2023-07-13T01:43:30;16.20;99.90
18777;DHT22;9517;51.174;4.160;2023-07-13T01:45:58;16.10;99.90
18777;DHT22;9517;51.174;4.160;2023-07-13T01:48:25;16.10;99.90
18777;DHT22;9517;51.174;4.160;2023-07-13T01:50:52;16.20;99.90
18777;DHT22;9517;51.174;4.160;2023-07-13T01:53:19;16.10;99.90
18777;DHT22;9517;51.174;4.160;2023-07-13T01:55:48;16.00;99.90
18777;DHT22;9517;51.174;4.160;2023-07-13T01:58:15;15.90;99.90
18777;DHT22;9517;51.174;4.160;2023-07-13T02:00:42;16.00;99.90
18777;DHT22;9517;51.174;4.160;2023-07-13T02:03:09;16.10;99.90
18777;DHT22;9517;51.174;4.160;2023-07-13T02:05:36;16.00;99.90
18777;DHT22;9517;51.174;4.160;2023-07-13T02:08:04;15.90;99.90
18777;DHT22;9517;51.174;4.160;2023-07-13T02:10:31;15.80;99.90
18777;DHT22;9517;51.174;4.160;2023-07-13T02:12:59;15.90;99.90
18777;DHT22;9517;51.174;4.160;2023-07-13T02:15:26;15.80;99.90
18777;DHT22;9517;51.174;4.160;2023-07-13T02:17:53;15.80;99.90
18777;DHT22;9517;51.174;4.160;2023-07-13T02:20:21;15.70;99.90
18777;DHT22;9517;51.174;4.160;2023-07-13T02:22:48;15.80;99.90
18777;DHT22;9517;51.174;4.160;2023-07-13T02:25:15;15.80;99.90
18777;DHT22;9517;51.174;4.160;2023-07-13T02:27:42;15.80;99.90
18777;DHT22;9517;51.174;4.160;2023-07-13T02:30:11;15.70;99.90
18777;DHT22;9517;51.174;4.160;2023-07-13T02:32:38;15.60;99.90
18777;DHT22;9517;51.174;4.160;2023-07-13T02:35:06;15.60;99.90
18777;DHT22;9517;51.174;4.160;2023-07-13T02:37:33;15.50;99.90
18777;DHT22;9517;51.174;4.160;2023-07-13T02:40:00;15.50;99.90
18777;DHT22;9517;51.174;4.160;2023-07-13T02:42:31;15.60;99.90
18777;DHT22;9517;51.174;4.160;2023-07-13T02:44:58;15.60;99.90
18777;DHT22;9517;51.174;4.160;2023-07-13T02:47:26;15.60;99.90
18777;DHT22;9517;51.174;4.160;2023-07-13T02:49:53;15.70;99.90
18777;DHT22;9517;51.174;4.160;2023-07-13T02:52:20;15.70;99.90
18777;DHT22;9517;51.174;4.160;2023-07-13T02:54:48;15.70;99.90
18777;DHT22;9517;51.174;4.160;2023-07-13T02:57:15;15.80;99.90
18777;DHT22;9517;51.174;4.160;2023-07-13T02:59:42;15.90;99.90
18777;DHT22;9517;51.174;4.160;2023-07-13T03:02:09;15.90;99.90
18777;DHT22;9517;51.174;4.160;2023-07-13T03:04:38;16.00;99.90
18777;DHT22;9517;51.174;4.160;2023-07-13T03:07:07;16.10;99.90
18777;DHT22;9517;51.174;4.160;2023-07-13T03:09:35;16.10;99.90
18777;DHT22;9517;51.174;4.160;2023-07-13T03:12:02;16.00;99.90
18777;DHT22;9517;51.174;4.160;2023-07-13T03:14:29;16.00;99.90
18777;DHT22;9517;51.174;4.160;2023-07-13T03:16:56;15.90;99.90
18777;DHT22;9517;51.174;4.160;2023-07-13T03:19:23;15.90;99.90
18777;DHT22;9517;51.174;4.160;2023-07-13T03:21:52;15.80;99.90
18777;DHT22;9517;51.174;4.160;2023-07-13T03:24:19;15.70;99.90
18777;DHT22;9517;51.174;4.160;2023-07-13T03:26:49;15.70;99.90
18777;DHT22;9517;51.174;4.160;2023-07-13T03:29:16;15.60;99.90
18777;DHT22;9517;51.174;4.160;2023-07-13T03:31:43;15.60;99.90
18777;DHT22;9517;51.174;4.160;2023-07-13T03:34:10;15.60;99.90
18777;DHT22;9517;51.174;4.160;2023-07-13T03:36:37;15.60;99.90
18777;DHT22;9517;51.174;4.160;2023-07-13T03:39:06;15.50;99.90
18777;DHT22;9517;51.174;4.160;2023-07-13T03:41:34;15.50;99.90
18777;DHT22;9517;51.174;4.160;2023-07-13T03:44:01;15.60;99.90
18777;DHT22;9517;51.174;4.160;2023-07-13T03:46:28;15.60;99.90
18777;DHT22;9517;51.174;4.160;2023-07-13T03:48:55;15.60;99.90
18777;DHT22;9517;51.174;4.160;2023-07-13T03:51:23;15.70;99.90
18777;DHT22;9517;51.174;4.160;2023-07-13T03:53:50;15.70;99.90
18777;DHT22;9517;51.174;4.160;2023-07-13T03:56:19;15.80;99.90
18777;DHT22;9517;51.174;4.160;2023-07-13T03:58:47;15.80;99.90
18777;DHT22;9517;51.174;4.160;2023-07-13T04:01:16;15.80;99.90
18777;DHT22;9517;51.174;4.160;2023-07-13T04:03:44;15.80;99.90
18777;DHT22;9517;51.174;4.160;2023-07-13T04:06:16;15.90;99.90
18777;DHT22;9517;51.174;4.160;2023-07-13T04:08:47;15.90;99.90
18777;DHT22;9517;51.174;4.160;2023-07-13T04:11:15;15.90;99.90
18777;DHT22;9517;51.174;4.160;2023-07-13T04:13:43;15.90;99.90
18777;DHT22;9517;51.174;4.160;2023-07-13T04:16:11;16.00;99.90
18777;DHT22;9517;51.174;4.160;2023-07-13T04:18:38;16.10;99.90
18777;DHT22;9517;51.174;4.160;2023-07-13T04:21:07;16.10;99.90
18777;DHT22;9517;51.174;4.160;2023-07-13T04:23:34;16.00;99.90
18777;DHT22;9517;51.174;4.160;2023-07-13T04:26:01;16.00;99.90
18777;DHT22;9517;51.174;4.160;2023-07-13T04:28:29;16.00;99.90
18777;DHT22;9517;51.174;4.160;2023-07-13T04:30:57;16.10;99.90
18777;DHT22;9517;51.174;4.160;2023-07-13T04:33:33;16.10;99.90
18777;DHT22;9517;51.174;4.160;2023-07-13T04:36:01;16.20;99.90
18777;DHT22;9517;51.174;4.160;2023-07-13T04:38:32;16.20;99.90
18777;DHT22;9517;51.174;4.160;2023-07-13T04:41:11;16.30;99.90
18777;DHT22;9517;51.174;4.160;2023-07-13T04:43:45;16.40;99.90
18777;DHT22;9517;51.174;4.160;2023-07-13T04:46:17;16.40;99.90
18777;DHT22;9517;51.174;4.160;2023-07-13T04:48:46;16.40;99.90
18777;DHT22;9517;51.174;4.160;2023-07-13T04:51:17;16.40;99.90
18777;DHT22;9517;51.174;4.160;2023-07-13T04:53:44;16.40;99.90
18777;DHT22;9517;51.174;4.160;2023-07-13T04:56:11;16.40;99.90
18777;DHT22;9517;51.174;4.160;2023-07-13T04:58:41;16.50;99.90
18777;DHT22;9517;51.174;4.160;2023-07-13T05:01:12;16.50;99.90
18777;DHT22;9517;51.174;4.160;2023-07-13T05:13:30;16.70;99.90
18777;DHT22;9517;51.174;4.160;2023-07-13T05:16:00;16.80;99.90
18777;DHT22;9517;51.174;4.160;2023-07-13T05:18:33;16.80;99.90
18777;DHT22;9517;51.174;4.160;2023-07-13T05:27:32;16.80;99.90
18777;DHT22;9517;51.174;4.160;2023-07-13T05:30:00;16.90;99.90
18777;DHT22;9517;51.174;4.160;2023-07-13T05:32:27;16.80;99.90
18777;DHT22;9517;51.174;4.160;2023-07-13T05:34:54;16.80;99.90
18777;DHT22;9517;51.174;4.160;2023-07-13T05:37:21;16.80;99.90
18777;DHT22;9517;51.174;4.160;2023-07-13T05:39:48;16.80;99.90
18777;DHT22;9517;51.174;4.160;2023-07-13T05:42:17;17.00;99.90
18777;DHT22;9517;51.174;4.160;2023-07-13T05:44:45;16.90;99.90
18777;DHT22;9517;51.174;4.160;2023-07-13T05:47:12;17.00;99.90
18777;DHT22;9517;51.174;4.160;2023-07-13T05:49:40;16.90;99.90
18777;DHT22;9517;51.174;4.160;2023-07-13T05:52:07;16.90;99.90
18777;DHT22;9517;51.174;4.160;2023-07-13T05:54:35;16.90;99.90
18777;DHT22;9517;51.174;4.160;2023-07-13T05:57:02;17.00;99.90
18777;DHT22;9517;51.174;4.160;2023-07-13T05:59:29;17.10;99.90
18777;DHT22;9517;51.174;4.160;2023-07-13T06:01:58;17.20;99.90
18777;DHT22;9517;51.174;4.160;2023-07-13T06:04:25;17.20;99.90
18777;DHT22;9517;51.174;4.160;2023-07-13T06:06:52;17.10;99.90
18777;DHT22;9517;51.174;4.160;2023-07-13T06:09:19;17.30;99.90
18777;DHT22;9517;51.174;4.160;2023-07-13T06:11:46;17.50;99.90
18777;DHT22;9517;51.174;4.160;2023-07-13T06:14:13;17.40;99.90
18777;DHT22;9517;51.174;4.160;2023-07-13T06:16:40;17.40;99.90
18777;DHT22;9517;51.174;4.160;2023-07-13T06:19:09;17.40;99.90
18777;DHT22;9517;51.174;4.160;2023-07-13T06:21:36;17.50;99.90
18777;DHT22;9517;51.174;4.160;2023-07-13T06:24:03;17.50;99.90
18777;DHT22;9517;51.174;4.160;2023-07-13T06:26:30;17.60;99.90
18777;DHT22;9517;51.174;4.160;2023-07-13T06:28:57;17.60;99.90
18777;DHT22;9517;51.174;4.160;2023-07-13T06:31:24;17.70;99.90
18777;DHT22;9517;51.174;4.160;2023-07-13T06:33:52;17.80;99.90
18777;DHT22;9517;51.174;4.160;2023-07-13T06:36:20;18.00;99.90
18777;DHT22;9517;51.174;4.160;2023-07-13T06:38:47;18.00;99.90
18777;DHT22;9517;51.174;4.160;2023-07-13T06:41:14;18.30;99.90
18777;DHT22;9517;51.174;4.160;2023-07-13T06:43:41;18.40;99.90
18777;DHT22;9517;51.174;4.160;2023-07-13T06:46:08;18.60;99.90
18777;DHT22;9517;51.174;4.160;2023-07-13T06:48:36;18.90;99.90
18777;DHT22;9517;51.174;4.160;2023-07-13T06:51:03;19.00;99.90
18777;DHT22;9517;51.174;4.160;2023-07-13T06:53:32;19.20;99.90
18777;DHT22;9517;51.174;4.160;2023-07-13T06:55:59;19.50;99.90
18777;DHT22;9517;51.174;4.160;2023-07-13T06:58:26;19.40;99.90
18777;DHT22;9517;51.174;4.160;2023-07-13T07:00:53;19.30;99.90
18777;DHT22;9517;51.174;4.160;2023-07-13T07:03:20;19.20;99.90
18777;DHT22;9517;51.174;4.160;2023-07-13T07:05:47;19.00;99.90
18777;DHT22;9517;51.174;4.160;2023-07-13T07:08:14;18.80;99.90
18777;DHT22;9517;51.174;4.160;2023-07-13T07:10:43;18.70;99.90
18777;DHT22;9517;51.174;4.160;2023-07-13T07:13:11;18.60;99.90
18777;DHT22;9517;51.174;4.160;2023-07-13T07:15:38;18.90;99.90
18777;DHT22;9517;51.174;4.160;2023-07-13T07:18:05;19.20;99.90
18777;DHT22;9517;51.174;4.160;2023-07-13T07:20:32;19.40;99.90
18777;DHT22;9517;51.174;4.160;2023-07-13T07:22:59;19.30;99.90
18777;DHT22;9517;51.174;4.160;2023-07-13T07:25:26;19.40;99.90
18777;DHT22;9517;51.174;4.160;2023-07-13T07:27:58;19.40;99.90
18777;DHT22;9517;51.174;4.160;2023-07-13T07:30:26;19.40;99.90
18777;DHT22;9517;51.174;4.160;2023-07-13T07:32:53;19.40;99.90
18777;DHT22;9517;51.174;4.160;2023-07-13T07:35:20;19.20;99.90
18777;DHT22;9517;51.174;4.160;2023-07-13T07:37:47;19.40;99.90
18777;DHT22;9517;51.174;4.160;2023-07-13T07:40:14;19.60;99.90
18777;DHT22;9517;51.174;4.160;2023-07-13T07:42:41;19.60;99.90
18777;DHT22;9517;51.174;4.160;2023-07-13T07:45:10;19.60;99.90
18777;DHT22;9517;51.174;4.160;2023-07-13T07:47:37;19.50;99.90
18777;DHT22;9517;51.174;4.160;2023-07-13T07:50:05;19.60;99.90
18777;DHT22;9517;51.174;4.160;2023-07-13T07:52:33;19.80;99.90
18777;DHT22;9517;51.174;4.160;2023-07-13T07:55:00;20.20;99.90
18777;DHT22;9517;51.174;4.160;2023-07-13T07:57:27;20.40;99.90
18777;DHT22;9517;51.174;4.160;2023-07-13T07:59:54;20.40;99.90
18777;DHT22;9517;51.174;4.160;2023-07-13T08:02:23;20.30;99.90
18777;DHT22;9517;51.174;4.160;2023-07-13T08:04:51;20.40;99.90
18777;DHT22;9517;51.174;4.160;2023-07-13T08:07:18;20.40;99.90
18777;DHT22;9517;51.174;4.160;2023-07-13T08:09:45;20.40;99.90
18777;DHT22;9517;51.174;4.160;2023-07-13T08:12:13;20.50;99.90
18777;DHT22;9517;51.174;4.160;2023-07-13T08:14:40;20.80;99.90
18777;DHT22;9517;51.174;4.160;2023-07-13T08:17:07;20.90;99.90
18777;DHT22;9517;51.174;4.160;2023-07-13T08:19:36;21.30;99.90
18777;DHT22;9517;51.174;4.160;2023-07-13T08:22:03;21.30;99.90
18777;DHT22;9517;51.174;4.160;2023-07-13T08:24:30;21.30;99.90
18777;DHT22;9517;51.174;4.160;2023-07-13T08:26:57;21.40;99.90
18777;DHT22;9517;51.174;4.160;2023-07-13T08:29:25;21.60;99.90
18777;DHT22;9517;51.174;4.160;2023-07-13T08:31:52;21.80;99.90
18777;DHT22;9517;51.174;4.160;2023-07-13T08:34:19;21.90;99.90
18777;DHT22;9517;51.174;4.160;2023-07-13T08:36:48;22.00;99.90
18777;DHT22;9517;51.174;4.160;2023-07-13T08:39:15;21.80;99.90
18777;DHT22;9517;51.174;4.160;2023-07-13T08:41:44;21.50;99.90
18777;DHT22;9517;51.174;4.160;2023-07-13T08:44:19;21.70;99.90
18777;DHT22;9517;51.174;4.160;2023-07-13T08:46:48;21.70;99.90
18777;DHT22;9517;51.174;4.160;2023-07-13T08:49:21;21.80;99.90
18777;DHT22;9517;51.174;4.160;2023-07-13T08:52:00;22.10;99.90
18777;DHT22;9517;51.174;4.160;2023-07-13T08:54:32;21.80;99.90
18777;DHT22;9517;51.174;4.160;2023-07-13T08:57:03;21.60;99.90
18777;DHT22;9517;51.174;4.160;2023-07-13T08:59:35;21.60;99.90
18777;DHT22;9517;51.174;4.160;2023-07-13T09:02:20;21.50;99.90
18777;DHT22;9517;51.174;4.160;2023-07-13T09:04:52;21.70;99.90
18777;DHT22;9517;51.174;4.160;2023-07-13T09:07:29;21.70;99.90
18777;DHT22;9517;51.174;4.160;2023-07-13T09:10:13;21.70;99.90
18777;DHT22;9517;51.174;4.160;2023-07-13T09:12:50;21.70;99.90
18777;DHT22;9517;51.174;4.160;2023-07-13T09:15:26;21.60;99.90
18777;DHT22;9517;51.174;4.160;2023-07-13T09:17:59;21.20;99.90
18777;DHT22;9517;51.174;4.160;2023-07-13T09:20:31;21.10;99.90
18777;DHT22;9517;51.174;4.160;2023-07-13T09:23:06;21.30;99.90
18777;DHT22;9517;51.174;4.160;2023-07-13T09:25:35;21.40;99.90
18777;DHT22;9517;51.174;4.160;2023-07-13T09:28:11;21.60;99.90
18777;DHT22;9517;51.174;4.160;2023-07-13T09:30:45;22.00;99.90
18777;DHT22;9517;51.174;4.160;2023-07-13T09:33:13;22.60;99.90
18777;DHT22;9517;51.174;4.160;2023-07-13T09:35:41;23.10;99.90
18777;DHT22;9517;51.174;4.160;2023-07-13T09:38:14;22.90;99.90
18777;DHT22;9517;51.174;4.160;2023-07-13T09:40:56;23.00;99.90
18777;DHT22;9517;51.174;4.160;2023-07-13T09:43:26;23.30;99.90
18777;DHT22;9517;51.174;4.160;2023-07-13T09:45:55;23.50;99.90
18777;DHT22;9517;51.174;4.160;2023-07-13T09:48:22;23.50;99.90
18777;DHT22;9517;51.174;4.160;2023-07-13T09:50:54;23.50;99.90
18777;DHT22;9517;51.174;4.160;2023-07-13T09:53:23;23.20;99.90
18777;DHT22;9517;51.174;4.160;2023-07-13T09:55:50;23.30;99.90
18777;DHT22;9517;51.174;4.160;2023-07-13T09:58:19;23.60;99.90
18777;DHT22;9517;51.174;4.160;2023-07-13T10:00:55;23.60;99.90
18777;DHT22;9517;51.174;4.160;2023-07-13T10:03:23;23.50;99.90
18777;DHT22;9517;51.174;4.160;2023-07-13T10:05:52;23.20;99.90
18777;DHT22;9517;51.174;4.160;2023-07-13T10:08:24;23.20;99.90
18777;DHT22;9517;51.174;4.160;2023-07-13T10:10:57;23.30;99.90
18777;DHT22;9517;51.174;4.160;2023-07-13T10:13:30;23.30;99.90
18777;DHT22;9517;51.174;4.160;2023-07-13T10:15:59;23.10;99.90
18777;DHT22;9517;51.174;4.160;2023-07-13T10:18:26;23.10;99.90
18777;DHT22;9517;51.174;4.160;2023-07-13T10:21:08;23.20;99.90
18777;DHT22;9517;51.174;4.160;2023-07-13T10:23:39;23.60;99.90
18777;DHT22;9517;51.174;4.160;2023-07-13T10:26:12;23.80;99.90
18777;DHT22;9517;51.174;4.160;2023-07-13T10:28:42;23.90;99.90
18777;DHT22;9517;51.174;4.160;2023-07-13T10:31:14;24.40;99.90
18777;DHT22;9517;51.174;4.160;2023-07-13T10:33:42;24.90;99.90
18777;DHT22;9517;51.174;4.160;2023-07-13T10:36:18;25.30;99.90
18777;DHT22;9517;51.174;4.160;2023-07-13T10:38:48;25.70;99.90
18777;DHT22;9517;51.174;4.160;2023-07-13T10:41:19;26.40;99.90
18777;DHT22;9517;51.174;4.160;2023-07-13T10:43:50;25.90;99.90
18777;DHT22;9517;51.174;4.160;2023-07-13T10:46:20;25.30;99.90
18777;DHT22;9517;51.174;4.160;2023-07-13T10:48:50;25.00;99.90
18777;DHT22;9517;51.174;4.160;2023-07-13T10:51:19;24.80;99.90
18777;DHT22;9517;51.174;4.160;2023-07-13T10:54:16;24.40;99.90
18777;DHT22;9517;51.174;4.160;2023-07-13T10:56:44;24.50;99.90
18777;DHT22;9517;51.174;4.160;2023-07-13T10:59:14;24.60;99.90
18777;DHT22;9517;51.174;4.160;2023-07-13T11:01:55;23.90;99.90
18777;DHT22;9517;51.174;4.160;2023-07-13T11:04:24;23.30;99.90
18777;DHT22;9517;51.174;4.160;2023-07-13T11:06:56;22.80;99.90
18777;DHT22;9517;51.174;4.160;2023-07-13T11:09:39;21.70;99.90
18777;DHT22;9517;51.174;4.160;2023-07-13T11:12:09;20.50;99.90
18777;DHT22;9517;51.174;4.160;2023-07-13T11:14:43;19.70;99.90
18777;DHT22;9517;51.174;4.160;2023-07-13T11:17:48;18.90;99.90
18777;DHT22;9517;51.174;4.160;2023-07-13T11:20:34;18.10;99.90
18777;DHT22;9517;51.174;4.160;2023-07-13T11:23:17;17.90;99.90
18777;DHT22;9517;51.174;4.160;2023-07-13T11:25:47;17.90;99.90
18777;DHT22;9517;51.174;4.160;2023-07-13T11:28:18;17.60;99.90
18777;DHT22;9517;51.174;4.160;2023-07-13T11:30:49;17.50;99.90
18777;DHT22;9517;51.174;4.160;2023-07-13T11:33:29;17.60;99.90
18777;DHT22;9517;51.174;4.160;2023-07-13T11:36:03;17.60;99.90
18777;DHT22;9517;51.174;4.160;2023-07-13T11:38:36;17.40;99.90
18777;DHT22;9517;51.174;4.160;2023-07-13T11:41:14;17.50;99.90
18777;DHT22;9517;51.174;4.160;2023-07-13T11:43:42;17.40;99.90
18777;DHT22;9517;51.174;4.160;2023-07-13T11:46:14;17.60;99.90
18777;DHT22;9517;51.174;4.160;2023-07-13T11:48:42;17.90;99.90
18777;DHT22;9517;51.174;4.160;2023-07-13T11:51:18;17.90;99.90
18777;DHT22;9517;51.174;4.160;2023-07-13T11:53:48;18.30;99.90
18777;DHT22;9517;51.174;4.160;2023-07-13T11:56:18;18.50;99.90
18777;DHT22;9517;51.174;4.160;2023-07-13T11:58:48;18.70;99.90
18777;DHT22;9517;51.174;4.160;2023-07-13T12:01:20;19.20;99.90
18777;DHT22;9517;51.174;4.160;2023-07-13T12:03:48;19.20;99.90
18777;DHT22;9517;51.174;4.160;2023-07-13T12:06:27;19.30;99.90
18777;DHT22;9517;51.174;4.160;2023-07-13T12:08:57;19.60;99.90
18777;DHT22;9517;51.174;4.160;2023-07-13T12:11:27;20.00;99.90
18777;DHT22;9517;51.174;4.160;2023-07-13T12:13:54;20.20;99.90
18777;DHT22;9517;51.174;4.160;2023-07-13T12:16:28;20.40;99.90
18777;DHT22;9517;51.174;4.160;2023-07-13T12:18:59;20.50;99.90
18777;DHT22;9517;51.174;4.160;2023-07-13T12:21:30;20.50;99.90
18777;DHT22;9517;51.174;4.160;2023-07-13T12:23:58;20.60;99.90
18777;DHT22;9517;51.174;4.160;2023-07-13T12:26:30;20.60;99.90
18777;DHT22;9517;51.174;4.160;2023-07-13T12:29:00;20.70;99.90
18777;DHT22;9517;51.174;4.160;2023-07-13T12:31:33;20.70;99.90
18777;DHT22;9517;51.174;4.160;2023-07-13T12:34:03;21.40;99.90
18777;DHT22;9517;51.174;4.160;2023-07-13T12:36:32;21.70;99.90
18777;DHT22;9517;51.174;4.160;2023-07-13T12:39:09;22.10;99.90
18777;DHT22;9517;51.174;4.160;2023-07-13T12:41:40;22.50;99.90
18777;DHT22;9517;51.174;4.160;2023-07-13T12:44:13;23.10;99.90
18777;DHT22;9517;51.174;4.160;2023-07-13T12:46:52;23.60;99.90
18777;DHT22;9517;51.174;4.160;2023-07-13T12:49:24;23.70;99.90
18777;DHT22;9517;51.174;4.160;2023-07-13T12:51:56;23.80;99.90
18777;DHT22;9517;51.174;4.160;2023-07-13T12:54:24;23.50;99.90
18777;DHT22;9517;51.174;4.160;2023-07-13T12:56:54;23.90;99.90
18777;DHT22;9517;51.174;4.160;2023-07-13T12:59:27;23.70;99.90
18777;DHT22;9517;51.174;4.160;2023-07-13T13:01:56;23.80;99.90
18777;DHT22;9517;51.174;4.160;2023-07-13T13:04:23;23.60;99.90
18777;DHT22;9517;51.174;4.160;2023-07-13T13:07:01;23.80;99.90
18777;DHT22;9517;51.174;4.160;2023-07-13T13:09:28;23.80;99.90
18777;DHT22;9517;51.174;4.160;2023-07-13T13:11:57;24.00;99.90
18777;DHT22;9517;51.174;4.160;2023-07-13T13:14:24;24.20;99.90
18777;DHT22;9517;51.174;4.160;2023-07-13T13:16:52;25.00;99.90
18777;DHT22;9517;51.174;4.160;2023-07-13T13:19:22;25.20;99.90
18777;DHT22;9517;51.174;4.160;2023-07-13T13:21:50;25.80;99.90
18777;DHT22;9517;51.174;4.160;2023-07-13T13:24:20;26.00;99.90
18777;DHT22;9517;51.174;4.160;2023-07-13T13:26:47;26.30;99.90
18777;DHT22;9517;51.174;4.160;2023-07-13T13:29:17;26.30;99.90
18777;DHT22;9517;51.174;4.160;2023-07-13T13:31:45;24.70;99.90
18777;DHT22;9517;51.174;4.160;2023-07-13T13:34:14;25.20;99.90
18777;DHT22;9517;51.174;4.160;2023-07-13T13:36:43;25.60;99.90
18777;DHT22;9517;51.174;4.160;2023-07-13T13:39:20;25.30;99.90
18777;DHT22;9517;51.174;4.160;2023-07-13T13:41:48;25.30;99.90
18777;DHT22;9517;51.174;4.160;2023-07-13T13:44:18;25.70;99.90
18777;DHT22;9517;51.174;4.160;2023-07-13T13:46:47;24.70;99.90
18777;DHT22;9517;51.174;4.160;2023-07-13T13:49:15;24.10;99.90
18777;DHT22;9517;51.174;4.160;2023-07-13T13:51:44;23.90;99.90
18777;DHT22;9517;51.174;4.160;2023-07-13T13:54:13;23.80;99.90
18777;DHT22;9517;51.174;4.160;2023-07-13T13:56:42;23.70;99.90
18777;DHT22;9517;51.174;4.160;2023-07-13T13:59:09;23.70;99.90
18777;DHT22;9517;51.174;4.160;2023-07-13T14:01:38;23.60;99.90
18777;DHT22;9517;51.174;4.160;2023-07-13T14:04:06;23.10;99.90
18777;DHT22;9517;51.174;4.160;2023-07-13T14:06:34;23.50;99.90
18777;DHT22;9517;51.174;4.160;2023-07-13T14:09:01;24.20;99.90
18777;DHT22;9517;51.174;4.160;2023-07-13T14:11:29;24.60;99.90
18777;DHT22;9517;51.174;4.160;2023-07-13T14:13:59;24.80;99.90
18777;DHT22;9517;51.174;4.160;2023-07-13T14:16:31;24.80;99.90
18777;DHT22;9517;51.174;4.160;2023-07-13T14:19:00;25.00;99.90
18777;DHT22;9517;51.174;4.160;2023-07-13T14:21:28;24.70;99.90
18777;DHT22;9517;51.174;4.160;2023-07-13T14:23:55;24.00;99.90
18777;DHT22;9517;51.174;4.160;2023-07-13T14:26:24;24.10;99.90
18777;DHT22;9517;51.174;4.160;2023-07-13T14:28:53;24.90;99.90
18777;DHT22;9517;51.174;4.160;2023-07-13T14:31:22;25.70;99.90
18777;DHT22;9517;51.174;4.160;2023-07-13T14:33:50;26.50;99.90
18777;DHT22;9517;51.174;4.160;2023-07-13T14:36:26;26.70;99.90
18777;DHT22;9517;51.174;4.160;2023-07-13T14:38:54;26.40;99.90
18777;DHT22;9517;51.174;4.160;2023-07-13T14:41:22;26.00;99.90
18777;DHT22;9517;51.174;4.160;2023-07-13T14:43:49;25.70;99.90
18777;DHT22;9517;51.174;4.160;2023-07-13T14:46:27;25.40;99.90
18777;DHT22;9517;51.174;4.160;2023-07-13T14:49:02;25.80;99.90
18777;DHT22;9517;51.174;4.160;2023-07-13T14:51:33;26.00;99.90
18777;DHT22;9517;51.174;4.160;2023-07-13T14:54:03;26.80;99.90
18777;DHT22;9517;51.174;4.160;2023-07-13T14:56:30;27.40;99.90
18777;DHT22;9517;51.174;4.160;2023-07-13T14:58:57;27.90;99.90
18777;DHT22;9517;51.174;4.160;2023-07-13T15:01:24;27.90;99.90
18777;DHT22;9517;51.174;4.160;2023-07-13T15:03:52;27.80;99.90
18777;DHT22;9517;51.174;4.160;2023-07-13T15:06:20;28.00;99.90
18777;DHT22;9517;51.174;4.160;2023-07-13T15:08:48;28.00;99.90
18777;DHT22;9517;51.174;4.160;2023-07-13T15:11:16;27.80;99.90
18777;DHT22;9517;51.174;4.160;2023-07-13T15:13:43;27.20;99.90
18777;DHT22;9517;51.174;4.160;2023-07-13T15:16:16;26.30;99.90
18777;DHT22;9517;51.174;4.160;2023-07-13T15:18:46;25.90;99.90
18777;DHT22;9517;51.174;4.160;2023-07-13T15:21:16;25.80;99.90
18777;DHT22;9517;51.174;4.160;2023-07-13T15:23:46;25.90;99.90
18777;DHT22;9517;51.174;4.160;2023-07-13T15:26:15;25.80;99.90
18777;DHT22;9517;51.174;4.160;2023-07-13T15:28:43;25.80;99.90
18777;DHT22;9517;51.174;4.160;2023-07-13T15:31:19;25.90;99.90
18777;DHT22;9517;51.174;4.160;2023-07-13T15:33:47;25.50;99.90
18777;DHT22;9517;51.174;4.160;2023-07-13T15:36:16;25.40;99.90
18777;DHT22;9517;51.174;4.160;2023-07-13T15:38:44;25.30;99.90
18777;DHT22;9517;51.174;4.160;2023-07-13T15:41:17;25.20;99.90
18777;DHT22;9517;51.174;4.160;2023-07-13T15:43:46;25.20;99.90
18777;DHT22;9517;51.174;4.160;2023-07-13T15:46:13;25.40;99.90
18777;DHT22;9517;51.174;4.160;2023-07-13T15:48:40;25.40;99.90
18777;DHT22;9517;51.174;4.160;2023-07-13T15:51:12;25.60;99.90
18777;DHT22;9517;51.174;4.160;2023-07-13T15:53:41;26.50;99.90
18777;DHT22;9517;51.174;4.160;2023-07-13T15:56:18;27.00;99.90
18777;DHT22;9517;51.174;4.160;2023-07-13T15:58:46;27.50;99.90
18777;DHT22;9517;51.174;4.160;2023-07-13T16:01:13;27.40;99.90
18777;DHT22;9517;51.174;4.160;2023-07-13T16:03:41;27.10;99.90
18777;DHT22;9517;51.174;4.160;2023-07-13T16:06:14;26.60;99.90
18777;DHT22;9517;51.174;4.160;2023-07-13T16:08:42;26.20;99.90
18777;DHT22;9517;51.174;4.160;2023-07-13T16:11:19;25.80;99.90
18777;DHT22;9517;51.174;4.160;2023-07-13T16:13:46;25.80;99.90
18777;DHT22;9517;51.174;4.160;2023-07-13T16:16:21;25.60;99.90